sensor_id;sensor_type;location;lat;lon;timestamp;P1;durP1;ratioP1;P2;durP2;ratioP2
20478;SDS011;10398;52.490;13.434;2023-04-01T00:00:28;5.87;;;2.00;;
20478;SDS011;10398;52.490;13.434;2023-04-01T00:02:54;6.97;;;1.63;;
20478;SDS011;10398;52.490;13.434;2023-04-01T00:05:20;5.17;;;2.00;;
20478;SDS011;10398;52.490;13.434;2023-04-01T00:07:46;4.27;;;1.73;;
20478;SDS011;10398;52.490;13.434;2023-04-01T00:10:12;2.60;;;1.17;;
20478;SDS011;10398;52.490;13.434;2023-04-01T00:12:39;4.43;;;2.03;;
20478;SDS011;10398;52.490;13.434;2023-04-01T00:15:05;6.20;;;2.70;;
20478;SDS011;10398;52.490;13.434;2023-04-01T00:17:32;6.23;;;1.93;;
20478;SDS011;10398;52.490;13.434;2023-04-01T00:19:58;7.50;;;1.90;;
20478;SDS011;10398;52.490;13.434;2023-04-01T00:22:24;6.07;;;2.33;;
20478;SDS011;10398;52.490;13.434;2023-04-01T00:24:51;2.93;;;1.53;;
20478;SDS011;10398;52.490;13.434;2023-04-01T00:27:17;6.77;;;1.70;;
20478;SDS011;10398;52.490;13.434;2023-04-01T00:29:43;4.67;;;1.73;;
20478;SDS011;10398;52.490;13.434;2023-04-01T00:32:09;8.70;;;3.17;;
20478;SDS011;10398;52.490;13.434;2023-04-01T00:34:35;7.90;;;2.77;;
20478;SDS011;10398;52.490;13.434;2023-04-01T00:37:01;4.33;;;1.80;;
20478;SDS011;10398;52.490;13.434;2023-04-01T00:39:31;4.70;;;2.17;;
20478;SDS011;10398;52.490;13.434;2023-04-01T00:41:57;5.77;;;1.83;;
20478;SDS011;10398;52.490;13.434;2023-04-01T00:44:25;5.03;;;2.47;;
20478;SDS011;10398;52.490;13.434;2023-04-01T00:46:53;5.63;;;1.70;;
20478;SDS011;10398;52.490;13.434;2023-04-01T00:49:19;3.93;;;2.03;;
20478;SDS011;10398;52.490;13.434;2023-04-01T00:51:48;5.67;;;1.93;;
20478;SDS011;10398;52.490;13.434;2023-04-01T00:54:17;4.03;;;1.33;;
20478;SDS011;10398;52.490;13.434;2023-04-01T00:56:50;2.60;;;1.20;;
20478;SDS011;10398;52.490;13.434;2023-04-01T00:59:23;3.87;;;1.27;;
20478;SDS011;10398;52.490;13.434;2023-04-01T01:01:54;4.10;;;1.10;;
20478;SDS011;10398;52.490;13.434;2023-04-01T01:04:29;3.80;;;1.60;;
20478;SDS011;10398;52.490;13.434;2023-04-01T01:07:00;2.03;;;1.10;;
20478;SDS011;10398;52.490;13.434;2023-04-01T01:09:42;7.30;;;1.50;;
20478;SDS011;10398;52.490;13.434;2023-04-01T01:12:44;4.07;;;1.30;;
20478;SDS011;10398;52.490;13.434;2023-04-01T01:37:30;3.27;;;1.30;;
20478;SDS011;10398;52.490;13.434;2023-04-01T01:40:05;3.93;;;1.30;;
20478;SDS011;10398;52.490;13.434;2023-04-01T01:42:34;3.27;;;1.30;;
20478;SDS011;10398;52.490;13.434;2023-04-01T01:45:03;2.63;;;1.27;;
20478;SDS011;10398;52.490;13.434;2023-04-01T01:47:30;4.40;;;1.37;;
20478;SDS011;10398;52.490;13.434;2023-04-01T01:49:58;3.53;;;1.20;;
20478;SDS011;10398;52.490;13.434;2023-04-01T01:52:27;3.67;;;1.00;;
20478;SDS011;10398;52.490;13.434;2023-04-01T01:54:54;2.30;;;1.30;;
20478;SDS011;10398;52.490;13.434;2023-04-01T01:57:28;4.93;;;1.30;;
20478;SDS011;10398;52.490;13.434;2023-04-01T02:00:09;3.03;;;1.30;;
20478;SDS011;10398;52.490;13.434;2023-04-01T02:02:40;3.67;;;1.20;;
20478;SDS011;10398;52.490;13.434;2023-04-01T02:05:09;5.20;;;1.63;;
20478;SDS011;10398;52.490;13.434;2023-04-01T02:07:39;3.57;;;1.50;;
20478;SDS011;10398;52.490;13.434;2023-04-01T02:10:12;3.17;;;1.40;;
20478;SDS011;10398;52.490;13.434;2023-04-01T02:12:38;3.87;;;1.30;;
20478;SDS011;10398;52.490;13.434;2023-04-01T02:15:08;6.10;;;1.73;;
20478;SDS011;10398;52.490;13.434;2023-04-01T02:17:38;2.57;;;1.40;;
20478;SDS011;10398;52.490;13.434;2023-04-01T02:20:13;2.17;;;1.10;;
20478;SDS011;10398;52.490;13.434;2023-04-01T02:22:43;2.30;;;1.20;;
20478;SDS011;10398;52.490;13.434;2023-04-01T02:25:13;5.27;;;1.33;;
20478;SDS011;10398;52.490;13.434;2023-04-01T02:27:42;1.70;;;1.00;;
20478;SDS011;10398;52.490;13.434;2023-04-01T02:30:11;2.43;;;0.97;;
20478;SDS011;10398;52.490;13.434;2023-04-01T02:32:38;5.97;;;1.53;;
20478;SDS011;10398;52.490;13.434;2023-04-01T02:35:05;6.40;;;1.67;;
20478;SDS011;10398;52.490;13.434;2023-04-01T02:37:36;5.93;;;0.83;;
20478;SDS011;10398;52.490;13.434;2023-04-01T02:40:04;3.87;;;1.13;;
20478;SDS011;10398;52.490;13.434;2023-04-01T02:42:34;3.13;;;1.23;;
20478;SDS011;10398;52.490;13.434;2023-04-01T02:45:00;3.27;;;1.47;;
20478;SDS011;10398;52.490;13.434;2023-04-01T02:47:26;5.67;;;1.40;;
20478;SDS011;10398;52.490;13.434;2023-04-01T02:49:52;4.23;;;1.20;;
20478;SDS011;10398;52.490;13.434;2023-04-01T02:52:26;4.07;;;1.67;;
20478;SDS011;10398;52.490;13.434;2023-04-01T02:54:53;1.93;;;1.00;;
20478;SDS011;10398;52.490;13.434;2023-04-01T02:57:19;1.60;;;0.90;;
20478;SDS011;10398;52.490;13.434;2023-04-01T02:59:45;3.23;;;1.20;;
20478;SDS011;10398;52.490;13.434;2023-04-01T03:02:10;2.60;;;1.23;;
20478;SDS011;10398;52.490;13.434;2023-04-01T03:04:36;2.43;;;0.97;;
20478;SDS011;10398;52.490;13.434;2023-04-01T03:07:02;6.03;;;1.10;;
20478;SDS011;10398;52.490;13.434;2023-04-01T03:09:28;3.97;;;1.37;;
20478;SDS011;10398;52.490;13.434;2023-04-01T03:11:53;6.40;;;1.33;;
20478;SDS011;10398;52.490;13.434;2023-04-01T03:14:19;3.00;;;1.47;;
20478;SDS011;10398;52.490;13.434;2023-04-01T03:16:45;3.73;;;1.30;;
20478;SDS011;10398;52.490;13.434;2023-04-01T03:19:11;4.20;;;1.50;;
20478;SDS011;10398;52.490;13.434;2023-04-01T03:21:37;6.83;;;1.70;;
20478;SDS011;10398;52.490;13.434;2023-04-01T03:24:02;3.63;;;1.30;;
20478;SDS011;10398;52.490;13.434;2023-04-01T03:26:29;5.47;;;1.23;;
20478;SDS011;10398;52.490;13.434;2023-04-01T03:28:54;2.93;;;1.20;;
20478;SDS011;10398;52.490;13.434;2023-04-01T03:31:20;3.50;;;1.23;;
20478;SDS011;10398;52.490;13.434;2023-04-01T03:33:46;2.30;;;1.17;;
20478;SDS011;10398;52.490;13.434;2023-04-01T03:36:12;3.93;;;1.10;;
20478;SDS011;10398;52.490;13.434;2023-04-01T03:38:38;5.33;;;1.30;;
20478;SDS011;10398;52.490;13.434;2023-04-01T03:41:11;4.10;;;1.23;;
20478;SDS011;10398;52.490;13.434;2023-04-01T03:43:38;4.53;;;1.07;;
20478;SDS011;10398;52.490;13.434;2023-04-01T03:46:03;6.13;;;1.73;;
20478;SDS011;10398;52.490;13.434;2023-04-01T03:48:29;4.17;;;1.83;;
20478;SDS011;10398;52.490;13.434;2023-04-01T03:50:55;3.47;;;1.40;;
20478;SDS011;10398;52.490;13.434;2023-04-01T03:53:21;4.27;;;1.00;;
20478;SDS011;10398;52.490;13.434;2023-04-01T03:55:46;3.60;;;1.60;;
20478;SDS011;10398;52.490;13.434;2023-04-01T03:58:12;5.30;;;1.30;;
20478;SDS011;10398;52.490;13.434;2023-04-01T04:00:38;4.90;;;1.70;;
20478;SDS011;10398;52.490;13.434;2023-04-01T04:03:03;3.80;;;1.30;;
20478;SDS011;10398;52.490;13.434;2023-04-01T04:05:31;4.07;;;1.80;;
20478;SDS011;10398;52.490;13.434;2023-04-01T04:07:57;4.17;;;1.53;;
20478;SDS011;10398;52.490;13.434;2023-04-01T04:10:23;3.30;;;1.30;;
20478;SDS011;10398;52.490;13.434;2023-04-01T04:12:50;4.63;;;1.73;;
20478;SDS011;10398;52.490;13.434;2023-04-01T04:15:16;3.93;;;1.13;;
20478;SDS011;10398;52.490;13.434;2023-04-01T04:17:41;5.53;;;1.80;;
20478;SDS011;10398;52.490;13.434;2023-04-01T04:20:07;7.37;;;1.70;;
20478;SDS011;10398;52.490;13.434;2023-04-01T04:22:33;6.80;;;1.70;;
20478;SDS011;10398;52.490;13.434;2023-04-01T04:24:59;4.03;;;1.37;;
20478;SDS011;10398;52.490;13.434;2023-04-01T04:27:25;4.27;;;1.93;;
20478;SDS011;10398;52.490;13.434;2023-04-01T04:29:51;2.80;;;1.50;;
20478;SDS011;10398;52.490;13.434;2023-04-01T04:32:16;2.60;;;1.40;;
20478;SDS011;10398;52.490;13.434;2023-04-01T04:34:42;4.90;;;1.60;;
20478;SDS011;10398;52.490;13.434;2023-04-01T04:37:07;4.47;;;1.47;;
20478;SDS011;10398;52.490;13.434;2023-04-01T04:39:33;3.93;;;1.40;;
20478;SDS011;10398;52.490;13.434;2023-04-01T04:41:59;11.23;;;1.80;;
20478;SDS011;10398;52.490;13.434;2023-04-01T04:44:24;4.03;;;1.50;;
20478;SDS011;10398;52.490;13.434;2023-04-01T04:46:50;5.30;;;2.00;;
20478;SDS011;10398;52.490;13.434;2023-04-01T04:49:16;4.30;;;1.80;;
20478;SDS011;10398;52.490;13.434;2023-04-01T04:51:42;6.60;;;2.70;;
20478;SDS011;10398;52.490;13.434;2023-04-01T04:54:07;6.70;;;2.80;;
20478;SDS011;10398;52.490;13.434;2023-04-01T04:56:33;4.80;;;1.60;;
20478;SDS011;10398;52.490;13.434;2023-04-01T04:59:00;8.23;;;1.77;;
20478;SDS011;10398;52.490;13.434;2023-04-01T05:01:26;4.83;;;1.80;;
20478;SDS011;10398;52.490;13.434;2023-04-01T05:03:52;6.07;;;1.87;;
20478;SDS011;10398;52.490;13.434;2023-04-01T05:06:20;2.53;;;1.50;;
20478;SDS011;10398;52.490;13.434;2023-04-01T05:08:46;3.00;;;1.30;;
20478;SDS011;10398;52.490;13.434;2023-04-01T05:11:12;8.80;;;1.90;;
20478;SDS011;10398;52.490;13.434;2023-04-01T05:13:40;4.60;;;1.70;;
20478;SDS011;10398;52.490;13.434;2023-04-01T05:16:10;5.93;;;1.80;;
20478;SDS011;10398;52.490;13.434;2023-04-01T05:18:38;7.10;;;1.63;;
20478;SDS011;10398;52.490;13.434;2023-04-01T05:21:04;5.00;;;1.67;;
20478;SDS011;10398;52.490;13.434;2023-04-01T05:23:33;5.37;;;1.47;;
20478;SDS011;10398;52.490;13.434;2023-04-01T05:26:02;3.73;;;1.40;;
20478;SDS011;10398;52.490;13.434;2023-04-01T05:28:31;3.73;;;1.47;;
20478;SDS011;10398;52.490;13.434;2023-04-01T05:31:01;7.27;;;1.67;;
20478;SDS011;10398;52.490;13.434;2023-04-01T05:33:28;7.73;;;1.77;;
20478;SDS011;10398;52.490;13.434;2023-04-01T05:35:54;4.07;;;1.50;;
20478;SDS011;10398;52.490;13.434;2023-04-01T05:38:20;6.23;;;1.77;;
20478;SDS011;10398;52.490;13.434;2023-04-01T05:40:46;3.70;;;1.57;;
20478;SDS011;10398;52.490;13.434;2023-04-01T05:43:11;3.93;;;1.50;;
20478;SDS011;10398;52.490;13.434;2023-04-01T05:45:37;5.90;;;2.30;;
20478;SDS011;10398;52.490;13.434;2023-04-01T05:48:03;5.43;;;2.07;;
20478;SDS011;10398;52.490;13.434;2023-04-01T05:50:29;5.27;;;1.63;;
20478;SDS011;10398;52.490;13.434;2023-04-01T05:52:55;4.70;;;1.60;;
20478;SDS011;10398;52.490;13.434;2023-04-01T05:55:21;3.00;;;1.43;;
20478;SDS011;10398;52.490;13.434;2023-04-01T05:57:47;2.93;;;1.50;;
20478;SDS011;10398;52.490;13.434;2023-04-01T06:00:14;3.37;;;1.73;;
20478;SDS011;10398;52.490;13.434;2023-04-01T06:02:40;3.27;;;1.40;;
20478;SDS011;10398;52.490;13.434;2023-04-01T06:05:18;5.90;;;1.80;;
20478;SDS011;10398;52.490;13.434;2023-04-01T06:07:46;5.57;;;1.80;;
20478;SDS011;10398;52.490;13.434;2023-04-01T06:10:16;7.03;;;1.63;;
20478;SDS011;10398;52.490;13.434;2023-04-01T06:18:13;4.50;;;1.67;;
20478;SDS011;10398;52.490;13.434;2023-04-01T06:45:30;3.70;;;1.70;;
20478;SDS011;10398;52.490;13.434;2023-04-01T06:53:55;7.60;;;2.50;;
20478;SDS011;10398;52.490;13.434;2023-04-01T06:56:44;5.00;;;1.93;;
20478;SDS011;10398;52.490;13.434;2023-04-01T06:59:17;12.20;;;2.90;;
20478;SDS011;10398;52.490;13.434;2023-04-01T07:01:47;13.33;;;2.50;;
20478;SDS011;10398;52.490;13.434;2023-04-01T07:04:31;8.93;;;1.97;;
20478;SDS011;10398;52.490;13.434;2023-04-01T07:07:05;6.43;;;1.93;;
20478;SDS011;10398;52.490;13.434;2023-04-01T07:09:48;4.57;;;1.90;;
20478;SDS011;10398;52.490;13.434;2023-04-01T07:15:00;8.10;;;2.13;;
20478;SDS011;10398;52.490;13.434;2023-04-01T07:17:37;5.23;;;1.70;;
20478;SDS011;10398;52.490;13.434;2023-04-01T07:22:42;8.20;;;2.40;;
20478;SDS011;10398;52.490;13.434;2023-04-01T07:25:21;5.43;;;1.90;;
20478;SDS011;10398;52.490;13.434;2023-04-01T07:27:51;4.70;;;1.83;;
20478;SDS011;10398;52.490;13.434;2023-04-01T07:30:24;6.90;;;2.20;;
20478;SDS011;10398;52.490;13.434;2023-04-01T07:35:43;3.20;;;1.97;;
20478;SDS011;10398;52.490;13.434;2023-04-01T07:52:06;11.23;;;3.47;;
20478;SDS011;10398;52.490;13.434;2023-04-01T07:55:24;7.10;;;2.93;;
20478;SDS011;10398;52.490;13.434;2023-04-01T07:57:57;8.93;;;3.13;;
20478;SDS011;10398;52.490;13.434;2023-04-01T08:22:51;8.67;;;3.30;;
20478;SDS011;10398;52.490;13.434;2023-04-01T08:25:50;7.23;;;2.20;;
20478;SDS011;10398;52.490;13.434;2023-04-01T08:31:06;7.03;;;2.30;;
20478;SDS011;10398;52.490;13.434;2023-04-01T08:33:38;6.23;;;2.20;;
20478;SDS011;10398;52.490;13.434;2023-04-01T08:38:46;4.40;;;1.93;;
20478;SDS011;10398;52.490;13.434;2023-04-01T08:47:08;5.80;;;2.70;;
20478;SDS011;10398;52.490;13.434;2023-04-01T08:53:49;5.73;;;2.93;;
20478;SDS011;10398;52.490;13.434;2023-04-01T09:15:54;9.00;;;3.80;;
20478;SDS011;10398;52.490;13.434;2023-04-01T09:21:34;8.77;;;3.53;;
20478;SDS011;10398;52.490;13.434;2023-04-01T09:29:46;7.97;;;3.53;;
20478;SDS011;10398;52.490;13.434;2023-04-01T09:40:56;7.20;;;3.87;;
20478;SDS011;10398;52.490;13.434;2023-04-01T09:46:25;11.57;;;5.33;;
20478;SDS011;10398;52.490;13.434;2023-04-01T10:14:49;6.57;;;4.17;;
20478;SDS011;10398;52.490;13.434;2023-04-01T10:17:00;6.00;;;3.67;;
20478;SDS011;10398;52.490;13.434;2023-04-01T10:19:49;9.70;;;3.43;;
20478;SDS011;10398;52.490;13.434;2023-04-01T10:22:56;8.77;;;3.53;;
20478;SDS011;10398;52.490;13.434;2023-04-01T10:31:45;10.87;;;5.23;;
20478;SDS011;10398;52.490;13.434;2023-04-01T10:34:44;8.97;;;4.50;;
20478;SDS011;10398;52.490;13.434;2023-04-01T10:55:11;10.17;;;3.77;;
20478;SDS011;10398;52.490;13.434;2023-04-01T11:12:18;2.93;;;1.93;;
20478;SDS011;10398;52.490;13.434;2023-04-01T11:15:06;4.47;;;2.20;;
20478;SDS011;10398;52.490;13.434;2023-04-01T11:23:16;6.70;;;2.77;;
20478;SDS011;10398;52.490;13.434;2023-04-01T11:25:58;4.73;;;2.23;;
20478;SDS011;10398;52.490;13.434;2023-04-01T11:28:51;3.40;;;1.90;;
20478;SDS011;10398;52.490;13.434;2023-04-01T11:31:37;1.87;;;1.43;;
20478;SDS011;10398;52.490;13.434;2023-04-01T11:40:08;2.17;;;1.60;;
20478;SDS011;10398;52.490;13.434;2023-04-01T11:46:12;1.90;;;1.40;;
20478;SDS011;10398;52.490;13.434;2023-04-01T11:54:20;3.57;;;1.80;;
20478;SDS011;10398;52.490;13.434;2023-04-01T12:08:51;3.83;;;1.80;;
20478;SDS011;10398;52.490;13.434;2023-04-01T12:11:48;3.40;;;2.00;;
20478;SDS011;10398;52.490;13.434;2023-04-01T12:14:41;4.37;;;2.57;;
20478;SDS011;10398;52.490;13.434;2023-04-01T12:17:59;4.27;;;2.17;;
20478;SDS011;10398;52.490;13.434;2023-04-01T12:20:46;3.53;;;2.30;;
20478;SDS011;10398;52.490;13.434;2023-04-01T12:32:49;4.43;;;2.40;;
20478;SDS011;10398;52.490;13.434;2023-04-01T12:38:27;4.30;;;2.30;;
20478;SDS011;10398;52.490;13.434;2023-04-01T12:41:22;6.30;;;2.80;;
20478;SDS011;10398;52.490;13.434;2023-04-01T13:10:58;5.93;;;3.03;;
20478;SDS011;10398;52.490;13.434;2023-04-01T13:13:45;6.53;;;3.20;;
20478;SDS011;10398;52.490;13.434;2023-04-01T13:19:13;11.30;;;5.07;;
20478;SDS011;10398;52.490;13.434;2023-04-01T13:43:28;4.73;;;2.50;;
20478;SDS011;10398;52.490;13.434;2023-04-01T13:46:06;6.63;;;2.63;;
20478;SDS011;10398;52.490;13.434;2023-04-01T13:54:00;5.93;;;3.40;;
20478;SDS011;10398;52.490;13.434;2023-04-01T14:12:37;9.33;;;4.67;;
20478;SDS011;10398;52.490;13.434;2023-04-01T14:21:21;8.87;;;4.13;;
20478;SDS011;10398;52.490;13.434;2023-04-01T14:32:05;4.83;;;3.43;;
20478;SDS011;10398;52.490;13.434;2023-04-01T14:46:04;6.03;;;3.50;;
20478;SDS011;10398;52.490;13.434;2023-04-01T14:51:35;5.90;;;3.57;;
20478;SDS011;10398;52.490;13.434;2023-04-01T14:54:16;5.70;;;4.00;;
20478;SDS011;10398;52.490;13.434;2023-04-01T14:56:50;9.20;;;3.73;;
20478;SDS011;10398;52.490;13.434;2023-04-01T14:59:27;5.40;;;3.80;;
20478;SDS011;10398;52.490;13.434;2023-04-01T15:01:56;6.10;;;3.93;;
20478;SDS011;10398;52.490;13.434;2023-04-01T15:09:43;4.97;;;3.37;;
20478;SDS011;10398;52.490;13.434;2023-04-01T15:17:48;8.37;;;4.13;;
20478;SDS011;10398;52.490;13.434;2023-04-01T15:28:36;5.77;;;3.70;;
20478;SDS011;10398;52.490;13.434;2023-04-01T15:33:58;6.30;;;3.37;;
20478;SDS011;10398;52.490;13.434;2023-04-01T15:36:44;8.13;;;4.07;;
20478;SDS011;10398;52.490;13.434;2023-04-01T15:39:24;4.87;;;3.23;;
20478;SDS011;10398;52.490;13.434;2023-04-01T15:45:19;5.50;;;3.30;;
20478;SDS011;10398;52.490;13.434;2023-04-01T15:53:27;5.10;;;2.90;;
20478;SDS011;10398;52.490;13.434;2023-04-01T15:56:16;4.77;;;2.13;;
20478;SDS011;10398;52.490;13.434;2023-04-01T15:58:53;5.00;;;2.70;;
20478;SDS011;10398;52.490;13.434;2023-04-01T16:01:26;6.27;;;2.93;;
20478;SDS011;10398;52.490;13.434;2023-04-01T16:21:02;5.17;;;3.57;;
20478;SDS011;10398;52.490;13.434;2023-04-01T16:29:33;5.23;;;3.37;;
20478;SDS011;10398;52.490;13.434;2023-04-01T16:32:15;4.90;;;2.97;;
20478;SDS011;10398;52.490;13.434;2023-04-01T16:38:01;6.53;;;3.43;;
20478;SDS011;10398;52.490;13.434;2023-04-01T16:41:04;6.13;;;3.40;;
20478;SDS011;10398;52.490;13.434;2023-04-01T16:43:38;7.33;;;3.37;;
20478;SDS011;10398;52.490;13.434;2023-04-01T16:49:02;4.90;;;2.63;;
20478;SDS011;10398;52.490;13.434;2023-04-01T16:56:54;6.60;;;2.87;;
20478;SDS011;10398;52.490;13.434;2023-04-01T16:59:29;6.30;;;3.17;;
20478;SDS011;10398;52.490;13.434;2023-04-01T17:02:03;7.03;;;3.83;;
20478;SDS011;10398;52.490;13.434;2023-04-01T17:07:30;4.40;;;2.70;;
20478;SDS011;10398;52.490;13.434;2023-04-01T17:15:29;6.00;;;3.00;;
20478;SDS011;10398;52.490;13.434;2023-04-01T17:26:06;6.70;;;3.20;;
20478;SDS011;10398;52.490;13.434;2023-04-01T17:29:04;6.40;;;3.40;;
20478;SDS011;10398;52.490;13.434;2023-04-01T17:31:47;6.63;;;3.10;;
20478;SDS011;10398;52.490;13.434;2023-04-01T17:40:30;6.10;;;2.87;;
20478;SDS011;10398;52.490;13.434;2023-04-01T17:42:52;5.80;;;3.43;;
20478;SDS011;10398;52.490;13.434;2023-04-01T17:45:21;3.73;;;2.80;;
20478;SDS011;10398;52.490;13.434;2023-04-01T17:48:08;5.03;;;2.73;;
20478;SDS011;10398;52.490;13.434;2023-04-01T18:01:45;6.97;;;3.23;;
20478;SDS011;10398;52.490;13.434;2023-04-01T18:18:06;4.50;;;2.47;;
20478;SDS011;10398;52.490;13.434;2023-04-01T18:20:56;5.33;;;2.27;;
20478;SDS011;10398;52.490;13.434;2023-04-01T18:26:26;4.13;;;2.40;;
20478;SDS011;10398;52.490;13.434;2023-04-01T18:28:59;3.00;;;1.77;;
20478;SDS011;10398;52.490;13.434;2023-04-01T18:31:51;4.53;;;2.70;;
20478;SDS011;10398;52.490;13.434;2023-04-01T18:34:40;5.10;;;2.70;;
20478;SDS011;10398;52.490;13.434;2023-04-01T18:40:28;10.67;;;4.00;;
20478;SDS011;10398;52.490;13.434;2023-04-01T18:48:50;11.10;;;3.07;;
20478;SDS011;10398;52.490;13.434;2023-04-01T18:54:04;6.50;;;2.70;;
20478;SDS011;10398;52.490;13.434;2023-04-01T18:56:40;4.60;;;2.23;;
20478;SDS011;10398;52.490;13.434;2023-04-01T19:04:33;5.10;;;2.53;;
20478;SDS011;10398;52.490;13.434;2023-04-01T19:09:52;5.93;;;2.77;;
20478;SDS011;10398;52.490;13.434;2023-04-01T19:20:47;5.07;;;3.00;;
20478;SDS011;10398;52.490;13.434;2023-04-01T19:26:33;8.20;;;2.77;;
20478;SDS011;10398;52.490;13.434;2023-04-01T20:02:41;10.17;;;3.13;;
20478;SDS011;10398;52.490;13.434;2023-04-01T20:13:28;4.67;;;2.67;;
20478;SDS011;10398;52.490;13.434;2023-04-01T20:16:54;4.10;;;2.13;;
20478;SDS011;10398;52.490;13.434;2023-04-01T20:19:39;7.60;;;2.80;;
20478;SDS011;10398;52.490;13.434;2023-04-01T20:27:51;7.93;;;3.07;;
20478;SDS011;10398;52.490;13.434;2023-04-01T20:51:54;8.03;;;4.03;;
20478;SDS011;10398;52.490;13.434;2023-04-01T20:56:57;7.40;;;3.30;;
20478;SDS011;10398;52.490;13.434;2023-04-01T20:59:42;4.27;;;2.40;;
20478;SDS011;10398;52.490;13.434;2023-04-01T21:04:53;6.40;;;2.50;;
20478;SDS011;10398;52.490;13.434;2023-04-01T21:10:21;7.73;;;2.73;;
20478;SDS011;10398;52.490;13.434;2023-04-01T21:15:51;9.27;;;2.57;;
20478;SDS011;10398;52.490;13.434;2023-04-01T21:21:26;5.20;;;2.30;;
20478;SDS011;10398;52.490;13.434;2023-04-01T21:29:50;5.73;;;2.87;;
20478;SDS011;10398;52.490;13.434;2023-04-01T21:43:24;4.80;;;1.93;;
20478;SDS011;10398;52.490;13.434;2023-04-01T21:51:54;9.93;;;2.33;;
20478;SDS011;10398;52.490;13.434;2023-04-01T21:54:35;5.77;;;2.70;;
20478;SDS011;10398;52.490;13.434;2023-04-01T22:00:12;4.63;;;2.20;;
20478;SDS011;10398;52.490;13.434;2023-04-01T22:28:19;6.63;;;2.30;;
20478;SDS011;10398;52.490;13.434;2023-04-01T22:30:55;4.93;;;1.90;;
20478;SDS011;10398;52.490;13.434;2023-04-01T22:33:28;11.60;;;2.43;;
20478;SDS011;10398;52.490;13.434;2023-04-01T22:36:06;8.73;;;2.33;;
20478;SDS011;10398;52.490;13.434;2023-04-01T22:38:47;5.77;;;1.93;;
20478;SDS011;10398;52.490;13.434;2023-04-01T22:41:25;3.83;;;1.70;;
20478;SDS011;10398;52.490;13.434;2023-04-01T22:44:21;4.00;;;1.80;;
20478;SDS011;10398;52.490;13.434;2023-04-01T22:47:15;5.13;;;2.30;;
20478;SDS011;10398;52.490;13.434;2023-04-01T22:50:08;4.90;;;2.00;;
20478;SDS011;10398;52.490;13.434;2023-04-01T22:52:44;8.43;;;2.40;;
20478;SDS011;10398;52.490;13.434;2023-04-01T22:55:15;4.70;;;2.03;;
20478;SDS011;10398;52.490;13.434;2023-04-01T22:58:03;5.40;;;1.37;;
20478;SDS011;10398;52.490;13.434;2023-04-01T23:05:37;5.63;;;2.03;;
20478;SDS011;10398;52.490;13.434;2023-04-01T23:16:57;4.20;;;1.60;;
20478;SDS011;10398;52.490;13.434;2023-04-01T23:19:37;2.87;;;1.50;;
20478;SDS011;10398;52.490;13.434;2023-04-01T23:22:25;4.17;;;1.63;;
20478;SDS011;10398;52.490;13.434;2023-04-01T23:27:42;2.77;;;1.50;;
20478;SDS011;10398;52.490;13.434;2023-04-01T23:33:20;2.77;;;1.60;;
20478;SDS011;10398;52.490;13.434;2023-04-01T23:35:52;3.97;;;1.83;;
20478;SDS011;10398;52.490;13.434;2023-04-01T23:38:35;4.83;;;2.17;;
20478;SDS011;10398;52.490;13.434;2023-04-01T23:41:03;2.80;;;1.47;;
20478;SDS011;10398;52.490;13.434;2023-04-01T23:43:31;3.80;;;1.77;;
20478;SDS011;10398;52.490;13.434;2023-04-01T23:46:01;5.50;;;1.67;;
20478;SDS011;10398;52.490;13.434;2023-04-01T23:48:30;3.23;;;1.83;;
20478;SDS011;10398;52.490;13.434;2023-04-01T23:50:57;2.60;;;1.40;;
20478;SDS011;10398;52.490;13.434;2023-04-01T23:53:24;3.73;;;1.87;;
20478;SDS011;10398;52.490;13.434;2023-04-01T23:55:54;3.23;;;1.70;;
20478;SDS011;10398;52.490;13.434;2023-04-01T23:58:27;3.43;;;1.40;;
